sensor_id;sensor_type;location;lat;lon;timestamp;temperature;humidity
41592;DHT22;28026;48.562;14.440;2022-09-09T00:02:22;11.40;99.90
41592;DHT22;28026;48.562;14.440;2022-09-09T00:08:27;11.40;99.90
41592;DHT22;28026;48.562;14.440;2022-09-09T00:11:28;11.40;99.90
41592;DHT22;28026;48.562;14.440;2022-09-09T00:17:17;11.20;99.90
41592;DHT22;28026;48.562;14.440;2022-09-09T00:20:29;11.20;99.90
41592;DHT22;28026;48.562;14.440;2022-09-09T00:23:12;11.20;99.90
41592;DHT22;28026;48.562;14.440;2022-09-09T00:26:09;11.20;99.90
41592;DHT22;28026;48.562;14.440;2022-09-09T00:31:49;11.30;99.90
41592;DHT22;28026;48.562;14.440;2022-09-09T00:34:27;11.30;99.90
41592;DHT22;28026;48.562;14.440;2022-09-09T00:36:59;11.10;99.90
41592;DHT22;28026;48.562;14.440;2022-09-09T00:39:34;11.10;99.90
41592;DHT22;28026;48.562;14.440;2022-09-09T00:42:16;11.10;99.90
41592;DHT22;28026;48.562;14.440;2022-09-09T00:44:56;11.10;99.90
41592;DHT22;28026;48.562;14.440;2022-09-09T00:47:52;10.70;99.90
41592;DHT22;28026;48.562;14.440;2022-09-09T00:53:56;10.10;99.90
41592;DHT22;28026;48.562;14.440;2022-09-09T00:57:33;10.30;99.90
41592;DHT22;28026;48.562;14.440;2022-09-09T01:06:14;10.90;99.90
41592;DHT22;28026;48.562;14.440;2022-09-09T01:09:16;11.00;99.90
41592;DHT22;28026;48.562;14.440;2022-09-09T01:14:58;11.00;99.90
41592;DHT22;28026;48.562;14.440;2022-09-09T01:29:11;10.70;99.90
41592;DHT22;28026;48.562;14.440;2022-09-09T01:31:55;10.60;99.90
41592;DHT22;28026;48.562;14.440;2022-09-09T01:34:33;10.60;99.90
41592;DHT22;28026;48.562;14.440;2022-09-09T01:37:10;10.70;99.90
41592;DHT22;28026;48.562;14.440;2022-09-09T01:39:43;10.80;99.90
41592;DHT22;28026;48.562;14.440;2022-09-09T01:42:15;10.90;99.90
41592;DHT22;28026;48.562;14.440;2022-09-09T01:44:46;10.90;99.90
41592;DHT22;28026;48.562;14.440;2022-09-09T01:47:17;10.90;99.90
41592;DHT22;28026;48.562;14.440;2022-09-09T01:49:48;10.90;99.90
41592;DHT22;28026;48.562;14.440;2022-09-09T01:52:19;10.80;99.90
41592;DHT22;28026;48.562;14.440;2022-09-09T01:54:50;10.90;99.90
41592;DHT22;28026;48.562;14.440;2022-09-09T01:57:33;10.90;99.90
41592;DHT22;28026;48.562;14.440;2022-09-09T02:00:12;10.90;99.90
41592;DHT22;28026;48.562;14.440;2022-09-09T02:02:56;11.00;99.90
41592;DHT22;28026;48.562;14.440;2022-09-09T02:08:52;11.10;99.90
41592;DHT22;28026;48.562;14.440;2022-09-09T02:11:27;11.00;99.90
41592;DHT22;28026;48.562;14.440;2022-09-09T02:14:00;10.90;99.90
41592;DHT22;28026;48.562;14.440;2022-09-09T02:16:49;10.80;99.90
41592;DHT22;28026;48.562;14.440;2022-09-09T02:19:32;10.70;99.90
41592;DHT22;28026;48.562;14.440;2022-09-09T02:22:09;10.70;99.90
41592;DHT22;28026;48.562;14.440;2022-09-09T02:24:40;10.80;99.90
41592;DHT22;28026;48.562;14.440;2022-09-09T02:27:12;10.90;99.90
41592;DHT22;28026;48.562;14.440;2022-09-09T02:29:46;10.90;99.90
41592;DHT22;28026;48.562;14.440;2022-09-09T02:32:22;11.10;99.90
41592;DHT22;28026;48.562;14.440;2022-09-09T02:34:56;11.10;99.90
41592;DHT22;28026;48.562;14.440;2022-09-09T02:37:36;11.10;99.90
41592;DHT22;28026;48.562;14.440;2022-09-09T02:40:10;11.10;99.90
41592;DHT22;28026;48.562;14.440;2022-09-09T02:42:46;11.20;99.90
41592;DHT22;28026;48.562;14.440;2022-09-09T02:45:20;11.10;99.90
41592;DHT22;28026;48.562;14.440;2022-09-09T02:48:09;11.10;99.90
41592;DHT22;28026;48.562;14.440;2022-09-09T02:50:58;11.20;99.90
41592;DHT22;28026;48.562;14.440;2022-09-09T02:54:01;11.20;99.90
41592;DHT22;28026;48.562;14.440;2022-09-09T02:56:51;11.20;99.90
41592;DHT22;28026;48.562;14.440;2022-09-09T02:59:26;11.20;99.90
41592;DHT22;28026;48.562;14.440;2022-09-09T03:01:57;11.20;99.90
41592;DHT22;28026;48.562;14.440;2022-09-09T03:04:28;11.20;99.90
41592;DHT22;28026;48.562;14.440;2022-09-09T03:07:01;11.20;99.90
41592;DHT22;28026;48.562;14.440;2022-09-09T03:09:34;11.20;99.90
41592;DHT22;28026;48.562;14.440;2022-09-09T03:12:04;11.20;99.90
41592;DHT22;28026;48.562;14.440;2022-09-09T03:14:36;11.20;99.90
41592;DHT22;28026;48.562;14.440;2022-09-09T03:17:08;11.30;99.90
41592;DHT22;28026;48.562;14.440;2022-09-09T03:19:39;11.30;99.90
41592;DHT22;28026;48.562;14.440;2022-09-09T03:22:10;11.30;99.90
41592;DHT22;28026;48.562;14.440;2022-09-09T03:24:41;11.30;99.90
41592;DHT22;28026;48.562;14.440;2022-09-09T03:27:12;11.30;99.90
41592;DHT22;28026;48.562;14.440;2022-09-09T03:29:44;11.30;99.90
41592;DHT22;28026;48.562;14.440;2022-09-09T03:32:16;11.30;99.90
41592;DHT22;28026;48.562;14.440;2022-09-09T03:34:52;11.30;99.90
41592;DHT22;28026;48.562;14.440;2022-09-09T03:37:23;11.30;99.90
41592;DHT22;28026;48.562;14.440;2022-09-09T03:39:54;11.30;99.90
41592;DHT22;28026;48.562;14.440;2022-09-09T03:42:25;11.30;99.90
41592;DHT22;28026;48.562;14.440;2022-09-09T03:44:56;11.30;99.90
41592;DHT22;28026;48.562;14.440;2022-09-09T03:47:28;11.10;99.90
41592;DHT22;28026;48.562;14.440;2022-09-09T03:49:59;11.00;99.90
41592;DHT22;28026;48.562;14.440;2022-09-09T03:52:30;10.90;99.90
41592;DHT22;28026;48.562;14.440;2022-09-09T03:55:01;11.00;99.90
41592;DHT22;28026;48.562;14.440;2022-09-09T03:57:32;11.10;99.90
41592;DHT22;28026;48.562;14.440;2022-09-09T04:00:06;11.10;99.90
41592;DHT22;28026;48.562;14.440;2022-09-09T04:02:38;11.20;99.90
41592;DHT22;28026;48.562;14.440;2022-09-09T04:05:09;11.20;99.90
41592;DHT22;28026;48.562;14.440;2022-09-09T04:07:40;11.30;99.90
41592;DHT22;28026;48.562;14.440;2022-09-09T04:10:10;11.30;99.90
41592;DHT22;28026;48.562;14.440;2022-09-09T04:12:41;11.30;99.90
41592;DHT22;28026;48.562;14.440;2022-09-09T04:15:12;11.40;99.90
41592;DHT22;28026;48.562;14.440;2022-09-09T04:17:43;11.50;99.90
41592;DHT22;28026;48.562;14.440;2022-09-09T04:20:14;11.00;99.90
41592;DHT22;28026;48.562;14.440;2022-09-09T04:22:45;10.50;99.90
41592;DHT22;28026;48.562;14.440;2022-09-09T04:25:15;10.30;99.90
41592;DHT22;28026;48.562;14.440;2022-09-09T04:27:46;10.40;99.90
41592;DHT22;28026;48.562;14.440;2022-09-09T04:30:17;10.30;99.90
41592;DHT22;28026;48.562;14.440;2022-09-09T04:32:48;10.40;99.90
41592;DHT22;28026;48.562;14.440;2022-09-09T04:35:19;10.60;99.90
41592;DHT22;28026;48.562;14.440;2022-09-09T04:37:50;10.80;99.90
41592;DHT22;28026;48.562;14.440;2022-09-09T04:40:21;10.90;99.90
41592;DHT22;28026;48.562;14.440;2022-09-09T04:42:52;11.10;99.90
41592;DHT22;28026;48.562;14.440;2022-09-09T04:45:23;11.20;99.90
41592;DHT22;28026;48.562;14.440;2022-09-09T04:47:54;11.30;99.90
41592;DHT22;28026;48.562;14.440;2022-09-09T04:50:25;11.40;99.90
41592;DHT22;28026;48.562;14.440;2022-09-09T04:52:56;11.50;99.90
41592;DHT22;28026;48.562;14.440;2022-09-09T04:55:29;11.60;99.90
41592;DHT22;28026;48.562;14.440;2022-09-09T04:58:04;11.70;99.90
41592;DHT22;28026;48.562;14.440;2022-09-09T05:00:37;11.80;99.90
41592;DHT22;28026;48.562;14.440;2022-09-09T05:03:08;11.50;99.90
41592;DHT22;28026;48.562;14.440;2022-09-09T05:05:39;11.30;99.90
41592;DHT22;28026;48.562;14.440;2022-09-09T05:08:10;11.30;99.90
41592;DHT22;28026;48.562;14.440;2022-09-09T05:10:41;11.40;99.90
41592;DHT22;28026;48.562;14.440;2022-09-09T05:13:12;11.60;99.90
41592;DHT22;28026;48.562;14.440;2022-09-09T05:15:50;11.90;99.90
41592;DHT22;28026;48.562;14.440;2022-09-09T05:18:23;12.10;99.90
41592;DHT22;28026;48.562;14.440;2022-09-09T05:20:58;12.40;99.90
41592;DHT22;28026;48.562;14.440;2022-09-09T05:23:30;12.60;99.90
41592;DHT22;28026;48.562;14.440;2022-09-09T05:26:02;12.50;99.90
41592;DHT22;28026;48.562;14.440;2022-09-09T05:28:34;12.60;99.90
41592;DHT22;28026;48.562;14.440;2022-09-09T05:31:07;12.60;99.90
41592;DHT22;28026;48.562;14.440;2022-09-09T05:33:42;12.60;99.90
41592;DHT22;28026;48.562;14.440;2022-09-09T05:36:20;12.60;99.90
41592;DHT22;28026;48.562;14.440;2022-09-09T05:38:53;12.60;99.90
41592;DHT22;28026;48.562;14.440;2022-09-09T05:41:24;12.70;99.90
41592;DHT22;28026;48.562;14.440;2022-09-09T05:43:55;12.80;99.90
41592;DHT22;28026;48.562;14.440;2022-09-09T05:46:26;12.60;99.90
41592;DHT22;28026;48.562;14.440;2022-09-09T05:48:57;12.30;99.90
41592;DHT22;28026;48.562;14.440;2022-09-09T05:51:28;12.60;99.90
41592;DHT22;28026;48.562;14.440;2022-09-09T05:54:02;12.70;99.90
41592;DHT22;28026;48.562;14.440;2022-09-09T05:56:33;12.80;99.90
41592;DHT22;28026;48.562;14.440;2022-09-09T05:59:04;12.90;99.90
41592;DHT22;28026;48.562;14.440;2022-09-09T06:01:36;13.00;99.90
41592;DHT22;28026;48.562;14.440;2022-09-09T06:04:10;13.10;99.90
41592;DHT22;28026;48.562;14.440;2022-09-09T06:06:42;13.10;99.90
41592;DHT22;28026;48.562;14.440;2022-09-09T06:09:13;13.20;99.90
41592;DHT22;28026;48.562;14.440;2022-09-09T06:11:45;13.40;99.90
41592;DHT22;28026;48.562;14.440;2022-09-09T06:14:16;13.50;99.90
41592;DHT22;28026;48.562;14.440;2022-09-09T06:16:48;13.90;99.90
41592;DHT22;28026;48.562;14.440;2022-09-09T06:19:19;14.10;99.90
41592;DHT22;28026;48.562;14.440;2022-09-09T06:21:50;14.50;99.90
41592;DHT22;28026;48.562;14.440;2022-09-09T06:24:21;14.80;99.90
41592;DHT22;28026;48.562;14.440;2022-09-09T06:26:52;15.10;99.90
41592;DHT22;28026;48.562;14.440;2022-09-09T06:29:24;15.40;99.90
41592;DHT22;28026;48.562;14.440;2022-09-09T06:31:55;15.20;99.90
41592;DHT22;28026;48.562;14.440;2022-09-09T06:34:26;15.40;99.90
41592;DHT22;28026;48.562;14.440;2022-09-09T06:36:57;15.50;99.90
41592;DHT22;28026;48.562;14.440;2022-09-09T06:39:28;15.60;99.90
41592;DHT22;28026;48.562;14.440;2022-09-09T06:41:59;15.20;99.90
41592;DHT22;28026;48.562;14.440;2022-09-09T06:44:30;15.00;99.90
41592;DHT22;28026;48.562;14.440;2022-09-09T06:47:02;14.80;99.90
41592;DHT22;28026;48.562;14.440;2022-09-09T06:49:33;14.70;99.90
41592;DHT22;28026;48.562;14.440;2022-09-09T06:52:05;14.70;99.90
41592;DHT22;28026;48.562;14.440;2022-09-09T06:54:36;14.80;99.90
41592;DHT22;28026;48.562;14.440;2022-09-09T06:57:07;14.70;99.90
41592;DHT22;28026;48.562;14.440;2022-09-09T06:59:38;14.70;99.90
41592;DHT22;28026;48.562;14.440;2022-09-09T07:02:09;14.70;99.90
41592;DHT22;28026;48.562;14.440;2022-09-09T07:04:40;14.90;99.90
41592;DHT22;28026;48.562;14.440;2022-09-09T07:07:10;14.90;99.90
41592;DHT22;28026;48.562;14.440;2022-09-09T07:09:43;14.80;99.90
41592;DHT22;28026;48.562;14.440;2022-09-09T07:12:15;14.60;99.90
41592;DHT22;28026;48.562;14.440;2022-09-09T07:14:46;14.60;99.90
41592;DHT22;28026;48.562;14.440;2022-09-09T07:17:17;14.70;99.90
41592;DHT22;28026;48.562;14.440;2022-09-09T07:19:48;14.90;99.90
41592;DHT22;28026;48.562;14.440;2022-09-09T07:22:19;15.10;99.90
41592;DHT22;28026;48.562;14.440;2022-09-09T07:24:50;15.10;99.90
41592;DHT22;28026;48.562;14.440;2022-09-09T07:27:21;15.10;99.90
41592;DHT22;28026;48.562;14.440;2022-09-09T07:29:51;15.00;99.90
41592;DHT22;28026;48.562;14.440;2022-09-09T07:32:24;14.80;99.90
41592;DHT22;28026;48.562;14.440;2022-09-09T07:34:55;14.80;99.90
41592;DHT22;28026;48.562;14.440;2022-09-09T07:37:28;14.80;99.90
41592;DHT22;28026;48.562;14.440;2022-09-09T07:39:59;14.80;99.90
41592;DHT22;28026;48.562;14.440;2022-09-09T07:42:30;14.90;99.90
41592;DHT22;28026;48.562;14.440;2022-09-09T07:45:00;15.10;99.90
41592;DHT22;28026;48.562;14.440;2022-09-09T07:47:31;15.10;99.90
41592;DHT22;28026;48.562;14.440;2022-09-09T07:50:02;15.20;99.90
41592;DHT22;28026;48.562;14.440;2022-09-09T07:52:33;15.10;99.90
41592;DHT22;28026;48.562;14.440;2022-09-09T07:55:05;15.10;99.90
41592;DHT22;28026;48.562;14.440;2022-09-09T07:57:36;15.10;99.90
41592;DHT22;28026;48.562;14.440;2022-09-09T08:00:07;15.20;99.90
41592;DHT22;28026;48.562;14.440;2022-09-09T08:02:40;15.30;99.90
41592;DHT22;28026;48.562;14.440;2022-09-09T08:05:11;15.30;99.90
41592;DHT22;28026;48.562;14.440;2022-09-09T08:07:43;15.30;99.90
41592;DHT22;28026;48.562;14.440;2022-09-09T08:10:14;15.30;99.90
41592;DHT22;28026;48.562;14.440;2022-09-09T08:12:46;15.10;99.90
41592;DHT22;28026;48.562;14.440;2022-09-09T08:15:17;14.90;99.90
41592;DHT22;28026;48.562;14.440;2022-09-09T08:17:48;14.70;99.90
41592;DHT22;28026;48.562;14.440;2022-09-09T08:20:19;14.70;99.90
41592;DHT22;28026;48.562;14.440;2022-09-09T08:22:50;14.80;99.90
41592;DHT22;28026;48.562;14.440;2022-09-09T08:25:20;14.90;99.90
41592;DHT22;28026;48.562;14.440;2022-09-09T08:27:52;15.00;99.90
41592;DHT22;28026;48.562;14.440;2022-09-09T08:30:23;15.20;99.90
41592;DHT22;28026;48.562;14.440;2022-09-09T08:32:54;15.30;99.90
41592;DHT22;28026;48.562;14.440;2022-09-09T08:35:25;15.40;99.90
41592;DHT22;28026;48.562;14.440;2022-09-09T08:37:56;15.50;99.90
41592;DHT22;28026;48.562;14.440;2022-09-09T08:40:29;15.50;99.90
41592;DHT22;28026;48.562;14.440;2022-09-09T08:43:10;15.60;99.90
41592;DHT22;28026;48.562;14.440;2022-09-09T08:45:51;15.60;99.90
41592;DHT22;28026;48.562;14.440;2022-09-09T08:48:44;15.60;99.90
41592;DHT22;28026;48.562;14.440;2022-09-09T08:51:49;15.60;99.90
41592;DHT22;28026;48.562;14.440;2022-09-09T08:54:25;15.70;99.90
41592;DHT22;28026;48.562;14.440;2022-09-09T08:57:07;15.80;99.90
41592;DHT22;28026;48.562;14.440;2022-09-09T08:59:47;15.80;99.90
41592;DHT22;28026;48.562;14.440;2022-09-09T09:02:42;15.90;99.90
41592;DHT22;28026;48.562;14.440;2022-09-09T09:05:37;15.80;99.90
41592;DHT22;28026;48.562;14.440;2022-09-09T09:08:39;16.00;99.90
41592;DHT22;28026;48.562;14.440;2022-09-09T09:11:37;16.10;99.90
41592;DHT22;28026;48.562;14.440;2022-09-09T09:14:33;16.30;99.90
41592;DHT22;28026;48.562;14.440;2022-09-09T09:17:09;16.10;99.90
41592;DHT22;28026;48.562;14.440;2022-09-09T09:19:47;16.00;99.90
41592;DHT22;28026;48.562;14.440;2022-09-09T09:22:24;15.80;99.90
41592;DHT22;28026;48.562;14.440;2022-09-09T09:25:19;16.20;99.90
41592;DHT22;28026;48.562;14.440;2022-09-09T09:28:02;16.10;99.90
41592;DHT22;28026;48.562;14.440;2022-09-09T09:31:08;16.00;99.90
41592;DHT22;28026;48.562;14.440;2022-09-09T09:36:20;15.90;99.90
41592;DHT22;28026;48.562;14.440;2022-09-09T09:39:04;16.00;99.90
41592;DHT22;28026;48.562;14.440;2022-09-09T09:41:36;16.00;99.90
41592;DHT22;28026;48.562;14.440;2022-09-09T09:44:23;15.90;99.90
41592;DHT22;28026;48.562;14.440;2022-09-09T09:49:55;16.00;99.90
41592;DHT22;28026;48.562;14.440;2022-09-09T09:52:31;15.80;99.90
41592;DHT22;28026;48.562;14.440;2022-09-09T09:55:05;15.80;99.90
41592;DHT22;28026;48.562;14.440;2022-09-09T09:57:44;15.80;99.90
41592;DHT22;28026;48.562;14.440;2022-09-09T10:00:16;16.00;99.90
41592;DHT22;28026;48.562;14.440;2022-09-09T10:02:50;16.00;99.90
41592;DHT22;28026;48.562;14.440;2022-09-09T10:05:24;15.90;99.90
41592;DHT22;28026;48.562;14.440;2022-09-09T10:10:46;15.60;99.90
41592;DHT22;28026;48.562;14.440;2022-09-09T10:16:38;15.40;99.90
41592;DHT22;28026;48.562;14.440;2022-09-09T10:19:53;15.30;99.90
41592;DHT22;28026;48.562;14.440;2022-09-09T10:23:03;15.20;99.90
41592;DHT22;28026;48.562;14.440;2022-09-09T10:46:44;14.60;99.90
41592;DHT22;28026;48.562;14.440;2022-09-09T10:57:48;14.80;99.90
41592;DHT22;28026;48.562;14.440;2022-09-09T11:00:25;14.90;99.90
41592;DHT22;28026;48.562;14.440;2022-09-09T11:03:14;14.70;99.90
41592;DHT22;28026;48.562;14.440;2022-09-09T11:05:56;14.70;99.90
41592;DHT22;28026;48.562;14.440;2022-09-09T11:08:35;14.70;99.90
41592;DHT22;28026;48.562;14.440;2022-09-09T11:11:17;14.70;99.90
41592;DHT22;28026;48.562;14.440;2022-09-09T11:14:07;15.10;99.90
41592;DHT22;28026;48.562;14.440;2022-09-09T11:19:34;15.50;99.90
41592;DHT22;28026;48.562;14.440;2022-09-09T11:25:21;15.50;99.90
41592;DHT22;28026;48.562;14.440;2022-09-09T11:34:31;15.60;99.90
41592;DHT22;28026;48.562;14.440;2022-09-09T11:40:31;15.60;99.90
41592;DHT22;28026;48.562;14.440;2022-09-09T11:43:04;15.60;99.90
41592;DHT22;28026;48.562;14.440;2022-09-09T11:45:42;15.60;99.90
41592;DHT22;28026;48.562;14.440;2022-09-09T11:51:09;15.80;99.90
41592;DHT22;28026;48.562;14.440;2022-09-09T11:53:51;15.80;99.90
41592;DHT22;28026;48.562;14.440;2022-09-09T11:56:32;15.80;99.90
41592;DHT22;28026;48.562;14.440;2022-09-09T11:59:20;15.50;99.90
41592;DHT22;28026;48.562;14.440;2022-09-09T12:02:01;15.60;99.90
41592;DHT22;28026;48.562;14.440;2022-09-09T12:07:42;16.10;99.90
41592;DHT22;28026;48.562;14.440;2022-09-09T12:11:22;16.40;99.90
41592;DHT22;28026;48.562;14.440;2022-09-09T12:13:28;16.80;99.90
41592;DHT22;28026;48.562;14.440;2022-09-09T12:16:00;16.70;99.90
41592;DHT22;28026;48.562;14.440;2022-09-09T12:18:36;16.80;99.90
41592;DHT22;28026;48.562;14.440;2022-09-09T12:21:32;16.80;99.90
41592;DHT22;28026;48.562;14.440;2022-09-09T12:24:20;16.80;99.90
41592;DHT22;28026;48.562;14.440;2022-09-09T12:27:12;16.70;99.90
41592;DHT22;28026;48.562;14.440;2022-09-09T12:30:09;16.60;99.90
41592;DHT22;28026;48.562;14.440;2022-09-09T12:32:45;16.20;99.90
41592;DHT22;28026;48.562;14.440;2022-09-09T12:37:59;16.40;99.90
41592;DHT22;28026;48.562;14.440;2022-09-09T12:40:34;16.60;99.90
41592;DHT22;28026;48.562;14.440;2022-09-09T12:43:18;16.40;99.90
41592;DHT22;28026;48.562;14.440;2022-09-09T12:45:53;16.60;99.90
41592;DHT22;28026;48.562;14.440;2022-09-09T12:51:16;16.50;99.90
41592;DHT22;28026;48.562;14.440;2022-09-09T12:53:58;16.40;99.90
41592;DHT22;28026;48.562;14.440;2022-09-09T12:56:31;16.50;99.90
41592;DHT22;28026;48.562;14.440;2022-09-09T12:59:03;16.50;99.90
41592;DHT22;28026;48.562;14.440;2022-09-09T13:01:34;16.60;99.90
41592;DHT22;28026;48.562;14.440;2022-09-09T13:04:19;16.70;99.90
41592;DHT22;28026;48.562;14.440;2022-09-09T13:06:52;16.60;99.90
41592;DHT22;28026;48.562;14.440;2022-09-09T13:09:23;16.50;99.90
41592;DHT22;28026;48.562;14.440;2022-09-09T13:11:54;16.60;99.90
41592;DHT22;28026;48.562;14.440;2022-09-09T13:14:29;16.70;99.90
41592;DHT22;28026;48.562;14.440;2022-09-09T13:17:15;16.90;99.90
41592;DHT22;28026;48.562;14.440;2022-09-09T13:19:52;17.00;99.90
41592;DHT22;28026;48.562;14.440;2022-09-09T13:22:28;17.10;99.90
41592;DHT22;28026;48.562;14.440;2022-09-09T13:27:50;17.10;99.90
41592;DHT22;28026;48.562;14.440;2022-09-09T13:30:28;16.80;99.90
41592;DHT22;28026;48.562;14.440;2022-09-09T13:33:04;15.90;99.90
41592;DHT22;28026;48.562;14.440;2022-09-09T13:35:49;15.40;99.90
41592;DHT22;28026;48.562;14.440;2022-09-09T13:44:45;15.10;99.90
41592;DHT22;28026;48.562;14.440;2022-09-09T13:49:49;15.30;99.90
41592;DHT22;28026;48.562;14.440;2022-09-09T13:52:20;15.20;99.90
41592;DHT22;28026;48.562;14.440;2022-09-09T13:54:52;15.00;99.90
41592;DHT22;28026;48.562;14.440;2022-09-09T13:57:24;15.20;99.90
41592;DHT22;28026;48.562;14.440;2022-09-09T13:59:55;15.50;99.90
41592;DHT22;28026;48.562;14.440;2022-09-09T14:02:26;15.70;99.90
41592;DHT22;28026;48.562;14.440;2022-09-09T14:04:57;15.90;99.90
41592;DHT22;28026;48.562;14.440;2022-09-09T14:07:28;16.00;99.90
41592;DHT22;28026;48.562;14.440;2022-09-09T14:09:59;15.60;99.90
41592;DHT22;28026;48.562;14.440;2022-09-09T14:12:30;15.50;99.90
41592;DHT22;28026;48.562;14.440;2022-09-09T14:15:01;15.70;99.90
41592;DHT22;28026;48.562;14.440;2022-09-09T14:17:37;15.80;99.90
41592;DHT22;28026;48.562;14.440;2022-09-09T14:20:09;16.00;99.90
41592;DHT22;28026;48.562;14.440;2022-09-09T14:22:42;15.70;99.90
41592;DHT22;28026;48.562;14.440;2022-09-09T14:25:14;15.40;99.90
41592;DHT22;28026;48.562;14.440;2022-09-09T14:27:45;15.20;99.90
41592;DHT22;28026;48.562;14.440;2022-09-09T14:30:16;15.10;99.90
41592;DHT22;28026;48.562;14.440;2022-09-09T14:32:47;15.20;99.90
41592;DHT22;28026;48.562;14.440;2022-09-09T14:35:18;15.20;99.90
41592;DHT22;28026;48.562;14.440;2022-09-09T14:37:49;15.00;99.90
41592;DHT22;28026;48.562;14.440;2022-09-09T14:40:20;15.00;99.90
41592;DHT22;28026;48.562;14.440;2022-09-09T14:42:50;15.10;99.90
41592;DHT22;28026;48.562;14.440;2022-09-09T14:45:23;15.30;99.90
41592;DHT22;28026;48.562;14.440;2022-09-09T14:47:58;15.40;99.90
41592;DHT22;28026;48.562;14.440;2022-09-09T14:50:29;15.30;99.90
41592;DHT22;28026;48.562;14.440;2022-09-09T14:53:00;15.00;99.90
41592;DHT22;28026;48.562;14.440;2022-09-09T14:55:30;14.90;99.90
41592;DHT22;28026;48.562;14.440;2022-09-09T14:58:01;15.00;99.90
41592;DHT22;28026;48.562;14.440;2022-09-09T15:00:33;15.10;99.90
41592;DHT22;28026;48.562;14.440;2022-09-09T15:03:04;15.20;99.90
41592;DHT22;28026;48.562;14.440;2022-09-09T15:05:35;15.30;99.90
41592;DHT22;28026;48.562;14.440;2022-09-09T15:08:06;15.20;99.90
41592;DHT22;28026;48.562;14.440;2022-09-09T15:10:37;15.00;99.90
41592;DHT22;28026;48.562;14.440;2022-09-09T15:13:09;14.90;99.90
41592;DHT22;28026;48.562;14.440;2022-09-09T15:15:40;14.90;99.90
41592;DHT22;28026;48.562;14.440;2022-09-09T15:18:11;15.10;99.90
41592;DHT22;28026;48.562;14.440;2022-09-09T15:20:44;15.20;99.90
41592;DHT22;28026;48.562;14.440;2022-09-09T15:23:16;15.30;99.90
41592;DHT22;28026;48.562;14.440;2022-09-09T15:25:53;15.40;99.90
41592;DHT22;28026;48.562;14.440;2022-09-09T15:28:26;15.40;99.90
41592;DHT22;28026;48.562;14.440;2022-09-09T15:30:58;15.50;99.90
41592;DHT22;28026;48.562;14.440;2022-09-09T15:33:30;15.50;99.90
41592;DHT22;28026;48.562;14.440;2022-09-09T15:36:00;15.40;99.90
41592;DHT22;28026;48.562;14.440;2022-09-09T15:38:31;15.10;99.90
41592;DHT22;28026;48.562;14.440;2022-09-09T15:41:02;15.00;99.90
41592;DHT22;28026;48.562;14.440;2022-09-09T15:43:33;15.00;99.90
41592;DHT22;28026;48.562;14.440;2022-09-09T15:49:11;14.80;99.90
41592;DHT22;28026;48.562;14.440;2022-09-09T15:51:56;14.60;99.90
41592;DHT22;28026;48.562;14.440;2022-09-09T15:54:33;14.70;99.90
41592;DHT22;28026;48.562;14.440;2022-09-09T15:57:10;14.70;99.90
41592;DHT22;28026;48.562;14.440;2022-09-09T15:59:43;14.60;99.90
41592;DHT22;28026;48.562;14.440;2022-09-09T16:02:15;14.70;99.90
41592;DHT22;28026;48.562;14.440;2022-09-09T16:04:46;14.70;99.90
41592;DHT22;28026;48.562;14.440;2022-09-09T16:07:17;14.70;99.90
41592;DHT22;28026;48.562;14.440;2022-09-09T16:09:47;14.60;99.90
41592;DHT22;28026;48.562;14.440;2022-09-09T16:12:21;14.70;99.90
41592;DHT22;28026;48.562;14.440;2022-09-09T16:14:52;14.90;99.90
41592;DHT22;28026;48.562;14.440;2022-09-09T16:17:23;14.80;99.90
41592;DHT22;28026;48.562;14.440;2022-09-09T16:19:53;14.80;99.90
41592;DHT22;28026;48.562;14.440;2022-09-09T16:22:24;14.80;99.90
41592;DHT22;28026;48.562;14.440;2022-09-09T16:24:55;14.80;99.90
41592;DHT22;28026;48.562;14.440;2022-09-09T16:27:26;14.70;99.90
41592;DHT22;28026;48.562;14.440;2022-09-09T16:29:57;14.60;99.90
41592;DHT22;28026;48.562;14.440;2022-09-09T16:32:28;14.00;99.90
41592;DHT22;28026;48.562;14.440;2022-09-09T16:34:59;13.80;99.90
41592;DHT22;28026;48.562;14.440;2022-09-09T16:37:29;13.80;99.90
41592;DHT22;28026;48.562;14.440;2022-09-09T16:40:00;14.00;99.90
41592;DHT22;28026;48.562;14.440;2022-09-09T16:42:33;14.00;99.90
41592;DHT22;28026;48.562;14.440;2022-09-09T16:45:04;14.20;99.90
41592;DHT22;28026;48.562;14.440;2022-09-09T16:47:37;14.20;99.90
41592;DHT22;28026;48.562;14.440;2022-09-09T16:50:07;14.10;99.90
41592;DHT22;28026;48.562;14.440;2022-09-09T16:52:39;14.10;99.90
41592;DHT22;28026;48.562;14.440;2022-09-09T16:55:09;14.20;99.90
41592;DHT22;28026;48.562;14.440;2022-09-09T16:57:40;14.20;99.90
41592;DHT22;28026;48.562;14.440;2022-09-09T17:00:11;14.10;99.90
41592;DHT22;28026;48.562;14.440;2022-09-09T17:02:43;14.00;99.90
41592;DHT22;28026;48.562;14.440;2022-09-09T17:05:15;14.00;99.90
41592;DHT22;28026;48.562;14.440;2022-09-09T17:07:46;13.90;99.90
41592;DHT22;28026;48.562;14.440;2022-09-09T17:10:17;14.00;99.90
41592;DHT22;28026;48.562;14.440;2022-09-09T17:12:47;14.00;99.90
41592;DHT22;28026;48.562;14.440;2022-09-09T17:15:18;13.80;99.90
41592;DHT22;28026;48.562;14.440;2022-09-09T17:17:50;13.90;99.90
41592;DHT22;28026;48.562;14.440;2022-09-09T17:20:23;14.00;99.90
41592;DHT22;28026;48.562;14.440;2022-09-09T17:22:54;14.20;99.90
41592;DHT22;28026;48.562;14.440;2022-09-09T17:25:25;14.20;99.90
41592;DHT22;28026;48.562;14.440;2022-09-09T17:27:56;14.20;99.90
41592;DHT22;28026;48.562;14.440;2022-09-09T17:30:27;14.20;99.90
41592;DHT22;28026;48.562;14.440;2022-09-09T17:32:58;14.30;99.90
41592;DHT22;28026;48.562;14.440;2022-09-09T17:35:30;14.30;99.90
41592;DHT22;28026;48.562;14.440;2022-09-09T17:38:01;14.20;99.90
41592;DHT22;28026;48.562;14.440;2022-09-09T17:40:32;14.10;99.90
41592;DHT22;28026;48.562;14.440;2022-09-09T17:43:03;14.00;99.90
41592;DHT22;28026;48.562;14.440;2022-09-09T17:45:34;14.10;99.90
41592;DHT22;28026;48.562;14.440;2022-09-09T17:48:05;14.10;99.90
41592;DHT22;28026;48.562;14.440;2022-09-09T17:50:37;14.10;99.90
41592;DHT22;28026;48.562;14.440;2022-09-09T17:53:07;14.10;99.90
41592;DHT22;28026;48.562;14.440;2022-09-09T17:55:38;14.10;99.90
41592;DHT22;28026;48.562;14.440;2022-09-09T17:58:09;14.10;99.90
41592;DHT22;28026;48.562;14.440;2022-09-09T18:00:40;14.10;99.90
41592;DHT22;28026;48.562;14.440;2022-09-09T18:03:12;14.10;99.90
41592;DHT22;28026;48.562;14.440;2022-09-09T18:05:42;14.00;99.90